El Alamein, El Alamein International Airport (HEAL)

NameEl Alamein International Airport
CityEl Alamein
CountryEgypt
ICAOHEAL
IATADBB
Altitude44 m
CoordinatesGoogle Map
Live Air TrafficLiveATC.net
METARHEAL 121054Z 00000KT 6000 NSC 16/06 Q1025 NOSIG
2020-01-12 10:54:00 Wind: North (0°) 0 m/s - Visibility: 6000 m - Temperature: 16 °C - Dew point: 6 °C - Humidity: 51.7% - Pressure: 1025 hPa

Sorry, no flights used the airport in this database.